sensor_id;sensor_type;location;lat;lon;timestamp;pressure;altitude;pressure_sealevel;temperature;humidity
19286;BME280;9776;50.798;6.430;2023-12-07T00:01:10;100578.34;;;4.88;73.63
19286;BME280;9776;50.798;6.430;2023-12-07T00:03:37;100577.28;;;4.91;73.62
19286;BME280;9776;50.798;6.430;2023-12-07T00:06:04;100569.13;;;4.95;73.50
19286;BME280;9776;50.798;6.430;2023-12-07T00:08:31;100571.75;;;4.95;73.60
19286;BME280;9776;50.798;6.430;2023-12-07T00:10:58;100571.63;;;4.97;73.47
19286;BME280;9776;50.798;6.430;2023-12-07T00:13:25;100569.97;;;4.96;73.67
19286;BME280;9776;50.798;6.430;2023-12-07T00:15:51;100563.28;;;4.92;73.60
19286;BME280;9776;50.798;6.430;2023-12-07T00:18:20;100567.88;;;4.88;73.70
19286;BME280;9776;50.798;6.430;2023-12-07T00:20:47;100571.66;;;4.84;73.89
19286;BME280;9776;50.798;6.430;2023-12-07T00:23:13;100574.38;;;4.83;73.90
19286;BME280;9776;50.798;6.430;2023-12-07T00:25:40;100574.38;;;4.83;73.89
19286;BME280;9776;50.798;6.430;2023-12-07T00:28:07;100573.53;;;4.82;73.97
19286;BME280;9776;50.798;6.430;2023-12-07T00:30:34;100575.44;;;4.80;74.00
19286;BME280;9776;50.798;6.430;2023-12-07T00:33:01;100571.13;;;4.79;74.05
19286;BME280;9776;50.798;6.430;2023-12-07T00:35:29;100569.34;;;4.80;74.02
19286;BME280;9776;50.798;6.430;2023-12-07T00:37:56;100570.31;;;4.79;74.06
19286;BME280;9776;50.798;6.430;2023-12-07T00:40:23;100566.22;;;4.75;74.20
19286;BME280;9776;50.798;6.430;2023-12-07T00:42:52;100564.56;;;4.74;74.11
19286;BME280;9776;50.798;6.430;2023-12-07T00:45:18;100559.53;;;4.71;74.39
19286;BME280;9776;50.798;6.430;2023-12-07T00:47:45;100556.09;;;4.70;74.35
19286;BME280;9776;50.798;6.430;2023-12-07T00:50:14;100561.44;;;4.69;74.46
19286;BME280;9776;50.798;6.430;2023-12-07T00:52:43;100565.72;;;4.70;74.27
19286;BME280;9776;50.798;6.430;2023-12-07T00:55:10;100560.91;;;4.64;74.33
19286;BME280;9776;50.798;6.430;2023-12-07T00:57:37;100569.91;;;4.59;74.37
19286;BME280;9776;50.798;6.430;2023-12-07T01:00:05;100572.84;;;4.55;74.55
19286;BME280;9776;50.798;6.430;2023-12-07T01:02:33;100566.91;;;4.53;74.55
19286;BME280;9776;50.798;6.430;2023-12-07T01:05:00;100563.72;;;4.48;74.47
19286;BME280;9776;50.798;6.430;2023-12-07T01:07:27;100568.34;;;4.44;74.62
19286;BME280;9776;50.798;6.430;2023-12-07T01:09:55;100575.66;;;4.39;74.67
19286;BME280;9776;50.798;6.430;2023-12-07T01:12:22;100575.84;;;4.36;74.73
19286;BME280;9776;50.798;6.430;2023-12-07T01:14:52;100577.88;;;4.33;74.88
19286;BME280;9776;50.798;6.430;2023-12-07T01:17:18;100578.16;;;4.28;74.98
19286;BME280;9776;50.798;6.430;2023-12-07T01:19:45;100576.59;;;4.26;74.91
19286;BME280;9776;50.798;6.430;2023-12-07T01:22:12;100580.25;;;4.23;75.14
19286;BME280;9776;50.798;6.430;2023-12-07T01:24:39;100575.22;;;4.20;75.02
19286;BME280;9776;50.798;6.430;2023-12-07T01:27:07;100581.31;;;4.21;74.99
19286;BME280;9776;50.798;6.430;2023-12-07T01:29:33;100575.66;;;4.14;75.38
19286;BME280;9776;50.798;6.430;2023-12-07T01:32:00;100574.81;;;4.14;75.30
19286;BME280;9776;50.798;6.430;2023-12-07T01:34:27;100583.59;;;4.13;75.23
19286;BME280;9776;50.798;6.430;2023-12-07T01:36:53;100600.19;;;4.12;75.18
19286;BME280;9776;50.798;6.430;2023-12-07T01:39:20;100590.78;;;4.09;75.17
19286;BME280;9776;50.798;6.430;2023-12-07T01:41:47;100599.56;;;4.08;75.24
19286;BME280;9776;50.798;6.430;2023-12-07T01:44:15;100599.75;;;4.05;75.08
19286;BME280;9776;50.798;6.430;2023-12-07T01:46:42;100604.25;;;4.03;75.07
19286;BME280;9776;50.798;6.430;2023-12-07T01:49:09;100610.59;;;3.99;75.17
19286;BME280;9776;50.798;6.430;2023-12-07T01:51:36;100609.88;;;3.97;75.05
19286;BME280;9776;50.798;6.430;2023-12-07T01:54:07;100612.56;;;3.95;75.11
19286;BME280;9776;50.798;6.430;2023-12-07T01:56:34;100611.97;;;3.92;75.08
19286;BME280;9776;50.798;6.430;2023-12-07T01:59:02;100613.81;;;3.90;75.21
19286;BME280;9776;50.798;6.430;2023-12-07T02:01:30;100614.13;;;3.85;75.07
19286;BME280;9776;50.798;6.430;2023-12-07T02:03:57;100611.72;;;3.82;75.19
19286;BME280;9776;50.798;6.430;2023-12-07T02:06:24;100610.22;;;3.78;75.06
19286;BME280;9776;50.798;6.430;2023-12-07T02:08:51;100612.22;;;3.75;75.20
19286;BME280;9776;50.798;6.430;2023-12-07T02:11:18;100608.84;;;3.73;75.19
19286;BME280;9776;50.798;6.430;2023-12-07T02:13:45;100614.28;;;3.70;75.07
19286;BME280;9776;50.798;6.430;2023-12-07T02:16:19;100616.06;;;3.69;75.16
19286;BME280;9776;50.798;6.430;2023-12-07T02:18:52;100609.34;;;3.65;74.98
19286;BME280;9776;50.798;6.430;2023-12-07T02:21:26;100608.50;;;3.65;74.95
19286;BME280;9776;50.798;6.430;2023-12-07T02:23:58;100612.16;;;3.62;75.02
19286;BME280;9776;50.798;6.430;2023-12-07T02:26:31;100608.81;;;3.60;75.12
19286;BME280;9776;50.798;6.430;2023-12-07T02:28:58;100616.00;;;3.57;75.07
19286;BME280;9776;50.798;6.430;2023-12-07T02:31:25;100606.59;;;3.54;74.94
19286;BME280;9776;50.798;6.430;2023-12-07T02:33:52;100603.22;;;3.52;74.98
19286;BME280;9776;50.798;6.430;2023-12-07T02:36:20;100612.94;;;3.50;74.92
19286;BME280;9776;50.798;6.430;2023-12-07T02:38:49;100614.09;;;3.46;75.04
19286;BME280;9776;50.798;6.430;2023-12-07T02:41:18;100615.94;;;3.44;74.92
19286;BME280;9776;50.798;6.430;2023-12-07T02:43:46;100617.94;;;3.40;75.09
19286;BME280;9776;50.798;6.430;2023-12-07T02:46:13;100613.63;;;3.39;74.99
19286;BME280;9776;50.798;6.430;2023-12-07T02:48:41;100611.09;;;3.38;74.97
19286;BME280;9776;50.798;6.430;2023-12-07T02:51:08;100606.91;;;3.35;74.92
19286;BME280;9776;50.798;6.430;2023-12-07T02:53:34;100603.59;;;3.33;75.07
19286;BME280;9776;50.798;6.430;2023-12-07T02:56:01;100596.59;;;3.34;74.89
19286;BME280;9776;50.798;6.430;2023-12-07T02:58:28;100598.44;;;3.32;74.78
19286;BME280;9776;50.798;6.430;2023-12-07T03:00:56;100595.41;;;3.25;74.95
19286;BME280;9776;50.798;6.430;2023-12-07T03:03:24;100593.19;;;3.19;75.14
19286;BME280;9776;50.798;6.430;2023-12-07T03:05:51;100591.59;;;3.17;75.09
19286;BME280;9776;50.798;6.430;2023-12-07T03:08:18;100595.13;;;3.16;75.19
19286;BME280;9776;50.798;6.430;2023-12-07T03:10:45;100592.81;;;3.11;75.14
19286;BME280;9776;50.798;6.430;2023-12-07T03:13:11;100588.41;;;3.12;75.06
19286;BME280;9776;50.798;6.430;2023-12-07T03:15:38;100583.22;;;3.12;74.96
19286;BME280;9776;50.798;6.430;2023-12-07T03:18:06;100587.41;;;3.14;75.01
19286;BME280;9776;50.798;6.430;2023-12-07T03:20:33;100583.13;;;3.13;74.91
19286;BME280;9776;50.798;6.430;2023-12-07T03:23:00;100589.25;;;3.12;74.84
19286;BME280;9776;50.798;6.430;2023-12-07T03:25:27;100588.53;;;3.10;74.80
19286;BME280;9776;50.798;6.430;2023-12-07T03:27:54;100584.25;;;3.09;74.74
19286;BME280;9776;50.798;6.430;2023-12-07T03:30:21;100591.03;;;3.12;74.79
19286;BME280;9776;50.798;6.430;2023-12-07T03:32:47;100593.94;;;3.07;74.74
19286;BME280;9776;50.798;6.430;2023-12-07T03:35:15;100585.84;;;2.98;74.99
19286;BME280;9776;50.798;6.430;2023-12-07T03:37:42;100586.44;;;2.89;75.20
19286;BME280;9776;50.798;6.430;2023-12-07T03:40:10;100579.91;;;2.81;75.28
19286;BME280;9776;50.798;6.430;2023-12-07T03:42:39;100581.78;;;2.79;75.18
19286;BME280;9776;50.798;6.430;2023-12-07T03:45:07;100578.41;;;2.77;75.16
19286;BME280;9776;50.798;6.430;2023-12-07T03:47:34;100581.78;;;2.79;75.14
19286;BME280;9776;50.798;6.430;2023-12-07T03:50:01;100580.94;;;2.79;75.14
19286;BME280;9776;50.798;6.430;2023-12-07T03:52:29;100589.69;;;2.78;75.08
19286;BME280;9776;50.798;6.430;2023-12-07T03:54:56;100584.28;;;2.81;74.91
19286;BME280;9776;50.798;6.430;2023-12-07T03:57:23;100575.63;;;2.80;74.72
19286;BME280;9776;50.798;6.430;2023-12-07T03:59:50;100573.13;;;2.79;74.71
19286;BME280;9776;50.798;6.430;2023-12-07T04:02:18;100573.00;;;2.80;74.48
19286;BME280;9776;50.798;6.430;2023-12-07T04:04:45;100570.50;;;2.79;74.55
19286;BME280;9776;50.798;6.430;2023-12-07T04:07:12;100583.63;;;2.77;74.27
19286;BME280;9776;50.798;6.430;2023-12-07T04:09:43;100586.81;;;2.68;74.48
19286;BME280;9776;50.798;6.430;2023-12-07T04:12:10;100584.41;;;2.65;74.57
19286;BME280;9776;50.798;6.430;2023-12-07T04:14:37;100583.56;;;2.65;74.36
19286;BME280;9776;50.798;6.430;2023-12-07T04:17:04;100580.00;;;2.66;74.46
19286;BME280;9776;50.798;6.430;2023-12-07T04:19:31;100577.56;;;2.63;74.34
19286;BME280;9776;50.798;6.430;2023-12-07T04:21:58;100580.38;;;2.60;74.18
19286;BME280;9776;50.798;6.430;2023-12-07T04:24:24;100579.56;;;2.59;74.17
19286;BME280;9776;50.798;6.430;2023-12-07T04:26:53;100576.19;;;2.57;74.00
19286;BME280;9776;50.798;6.430;2023-12-07T04:29:22;100580.56;;;2.57;74.01
19286;BME280;9776;50.798;6.430;2023-12-07T04:31:49;100589.31;;;2.56;74.04
19286;BME280;9776;50.798;6.430;2023-12-07T04:34:15;100593.97;;;2.51;74.07
19286;BME280;9776;50.798;6.430;2023-12-07T04:36:42;100599.38;;;2.48;74.19
19286;BME280;9776;50.798;6.430;2023-12-07T04:39:08;100601.19;;;2.46;74.09
19286;BME280;9776;50.798;6.430;2023-12-07T04:41:35;100596.09;;;2.44;74.11
19286;BME280;9776;50.798;6.430;2023-12-07T04:44:04;100596.47;;;2.38;74.22
19286;BME280;9776;50.798;6.430;2023-12-07T04:46:31;100603.13;;;2.28;74.34
19286;BME280;9776;50.798;6.430;2023-12-07T04:48:57;100600.63;;;2.26;74.38
19286;BME280;9776;50.798;6.430;2023-12-07T04:51:24;100611.97;;;2.25;74.37
19286;BME280;9776;50.798;6.430;2023-12-07T04:53:51;100611.97;;;2.25;74.34
19286;BME280;9776;50.798;6.430;2023-12-07T04:56:17;100616.16;;;2.28;74.18
19286;BME280;9776;50.798;6.430;2023-12-07T04:58:44;100614.56;;;2.25;74.16
19286;BME280;9776;50.798;6.430;2023-12-07T05:01:12;100611.88;;;2.27;74.06
19286;BME280;9776;50.798;6.430;2023-12-07T05:03:39;100617.94;;;2.27;74.00
19286;BME280;9776;50.798;6.430;2023-12-07T05:06:06;100625.56;;;2.31;73.88
19286;BME280;9776;50.798;6.430;2023-12-07T05:08:33;100622.69;;;2.35;73.61
19286;BME280;9776;50.798;6.430;2023-12-07T05:11:02;100627.06;;;2.35;73.77
19286;BME280;9776;50.798;6.430;2023-12-07T05:13:29;100629.47;;;2.38;73.75
19286;BME280;9776;50.798;6.430;2023-12-07T05:15:59;100638.88;;;2.40;73.65
19286;BME280;9776;50.798;6.430;2023-12-07T05:18:27;100641.41;;;2.42;73.73
19286;BME280;9776;50.798;6.430;2023-12-07T05:20:54;100644.19;;;2.39;73.78
19286;BME280;9776;50.798;6.430;2023-12-07T05:23:21;100631.34;;;2.36;73.87
19286;BME280;9776;50.798;6.430;2023-12-07T05:25:48;100641.03;;;2.34;73.88
19286;BME280;9776;50.798;6.430;2023-12-07T05:28:15;100633.28;;;2.32;73.95
19286;BME280;9776;50.798;6.430;2023-12-07T05:30:41;100640.03;;;2.20;73.99
19286;BME280;9776;50.798;6.430;2023-12-07T05:33:08;100635.53;;;2.08;74.32
19286;BME280;9776;50.798;6.430;2023-12-07T05:35:37;100617.03;;;1.99;74.42
19286;BME280;9776;50.798;6.430;2023-12-07T05:38:03;100624.16;;;1.95;74.53
19286;BME280;9776;50.798;6.430;2023-12-07T05:40:30;100615.78;;;1.90;74.51
19286;BME280;9776;50.798;6.430;2023-12-07T05:42:57;100616.88;;;1.86;74.34
19286;BME280;9776;50.798;6.430;2023-12-07T05:45:24;100621.34;;;1.84;74.41
19286;BME280;9776;50.798;6.430;2023-12-07T05:47:51;100623.16;;;1.82;74.42
19286;BME280;9776;50.798;6.430;2023-12-07T05:50:18;100624.13;;;1.65;74.55
19286;BME280;9776;50.798;6.430;2023-12-07T05:52:47;100626.38;;;1.56;74.86
19286;BME280;9776;50.798;6.430;2023-12-07T05:55:14;100625.47;;;1.57;74.89
19286;BME280;9776;50.798;6.430;2023-12-07T05:57:41;100621.00;;;1.59;74.95
19286;BME280;9776;50.798;6.430;2023-12-07T06:00:08;100612.88;;;1.65;74.67
19286;BME280;9776;50.798;6.430;2023-12-07T06:02:36;100611.84;;;1.67;74.49
19286;BME280;9776;50.798;6.430;2023-12-07T06:05:03;100607.31;;;1.71;74.32
19286;BME280;9776;50.798;6.430;2023-12-07T06:07:30;100598.78;;;1.69;74.20
19286;BME280;9776;50.798;6.430;2023-12-07T06:09:58;100593.66;;;1.67;74.14
19286;BME280;9776;50.798;6.430;2023-12-07T06:12:25;100599.88;;;1.65;74.21
19286;BME280;9776;50.798;6.430;2023-12-07T06:14:52;100599.13;;;1.63;74.11
19286;BME280;9776;50.798;6.430;2023-12-07T06:17:20;100594.03;;;1.61;74.07
19286;BME280;9776;50.798;6.430;2023-12-07T06:19:47;100598.88;;;1.52;74.28
19286;BME280;9776;50.798;6.430;2023-12-07T06:22:13;100592.28;;;1.46;74.41
19286;BME280;9776;50.798;6.430;2023-12-07T06:24:42;100592.16;;;1.48;74.43
19286;BME280;9776;50.798;6.430;2023-12-07T06:27:11;100592.00;;;1.51;74.19
19286;BME280;9776;50.798;6.430;2023-12-07T06:29:38;100586.72;;;1.52;74.21
19286;BME280;9776;50.798;6.430;2023-12-07T06:32:06;100587.75;;;1.50;74.08
19286;BME280;9776;50.798;6.430;2023-12-07T06:34:33;100585.81;;;1.38;74.25
19286;BME280;9776;50.798;6.430;2023-12-07T06:36:59;100578.75;;;1.24;74.76
19286;BME280;9776;50.798;6.430;2023-12-07T06:39:26;100582.53;;;1.19;74.90
19286;BME280;9776;50.798;6.430;2023-12-07T06:41:53;100574.91;;;1.15;75.04
19286;BME280;9776;50.798;6.430;2023-12-07T06:44:22;100579.94;;;1.19;74.89
19286;BME280;9776;50.798;6.430;2023-12-07T06:46:49;100576.16;;;1.24;74.75
19286;BME280;9776;50.798;6.430;2023-12-07T06:49:16;100577.78;;;1.27;74.72
19286;BME280;9776;50.798;6.430;2023-12-07T06:51:42;100563.75;;;1.29;74.50
19286;BME280;9776;50.798;6.430;2023-12-07T06:54:09;100559.31;;;1.31;74.44
19286;BME280;9776;50.798;6.430;2023-12-07T06:56:36;100563.50;;;1.34;74.31
19286;BME280;9776;50.798;6.430;2023-12-07T06:59:03;100571.28;;;1.34;74.37
19286;BME280;9776;50.798;6.430;2023-12-07T07:01:31;100569.44;;;1.36;74.20
19286;BME280;9776;50.798;6.430;2023-12-07T07:03:58;100571.88;;;1.39;74.26
19286;BME280;9776;50.798;6.430;2023-12-07T07:06:24;100573.38;;;1.43;74.11
19286;BME280;9776;50.798;6.430;2023-12-07T07:08:51;100574.91;;;1.47;73.88
19286;BME280;9776;50.798;6.430;2023-12-07T07:11:18;100579.94;;;1.50;73.88
19286;BME280;9776;50.798;6.430;2023-12-07T07:13:45;100572.88;;;1.52;73.73
19286;BME280;9776;50.798;6.430;2023-12-07T07:16:12;100569.44;;;1.51;73.81
19286;BME280;9776;50.798;6.430;2023-12-07T07:18:41;100561.72;;;1.50;73.99
19286;BME280;9776;50.798;6.430;2023-12-07T07:21:08;100574.56;;;1.53;73.82
19286;BME280;9776;50.798;6.430;2023-12-07T07:23:35;100572.72;;;1.55;73.80
19286;BME280;9776;50.798;6.430;2023-12-07T07:26:03;100567.34;;;1.58;73.77
19286;BME280;9776;50.798;6.430;2023-12-07T07:28:31;100568.19;;;1.58;73.70
19286;BME280;9776;50.798;6.430;2023-12-07T07:30:58;100574.88;;;1.62;73.66
19286;BME280;9776;50.798;6.430;2023-12-07T07:33:25;100573.69;;;1.68;73.52
19286;BME280;9776;50.798;6.430;2023-12-07T07:35:57;100571.84;;;1.70;73.48
19286;BME280;9776;50.798;6.430;2023-12-07T07:38:25;100570.00;;;1.72;73.48
19286;BME280;9776;50.798;6.430;2023-12-07T07:40:52;100567.28;;;1.73;73.48
19286;BME280;9776;50.798;6.430;2023-12-07T07:43:19;100559.41;;;1.75;73.57
19286;BME280;9776;50.798;6.430;2023-12-07T07:45:46;100572.81;;;1.83;73.53
19286;BME280;9776;50.798;6.430;2023-12-07T07:48:14;100571.44;;;1.92;73.51
19286;BME280;9776;50.798;6.430;2023-12-07T07:50:41;100565.03;;;1.97;73.44
19286;BME280;9776;50.798;6.430;2023-12-07T07:53:09;100569.81;;;2.05;73.39
19286;BME280;9776;50.798;6.430;2023-12-07T07:55:36;100573.06;;;2.08;73.37
19286;BME280;9776;50.798;6.430;2023-12-07T07:58:04;100582.19;;;2.15;73.35
19286;BME280;9776;50.798;6.430;2023-12-07T08:00:34;100575.69;;;2.22;73.42
19286;BME280;9776;50.798;6.430;2023-12-07T08:03:01;100582.22;;;2.29;73.39
19286;BME280;9776;50.798;6.430;2023-12-07T08:05:28;100569.66;;;2.36;73.32
19286;BME280;9776;50.798;6.430;2023-12-07T08:07:55;100577.03;;;2.44;73.13
19286;BME280;9776;50.798;6.430;2023-12-07T08:10:24;100579.16;;;2.51;73.13
19286;BME280;9776;50.798;6.430;2023-12-07T08:12:51;100581.38;;;2.57;73.01
19286;BME280;9776;50.798;6.430;2023-12-07T08:15:17;100569.75;;;2.63;73.02
19286;BME280;9776;50.798;6.430;2023-12-07T08:17:46;100568.56;;;2.68;73.08
19286;BME280;9776;50.798;6.430;2023-12-07T08:20:16;100570.69;;;2.76;73.01
19286;BME280;9776;50.798;6.430;2023-12-07T08:22:43;100569.47;;;2.81;72.88
19286;BME280;9776;50.798;6.430;2023-12-07T08:25:11;100570.13;;;2.85;72.93
19286;BME280;9776;50.798;6.430;2023-12-07T08:27:40;100569.94;;;2.88;72.84
19286;BME280;9776;50.798;6.430;2023-12-07T08:30:07;100563.59;;;2.92;72.97
19286;BME280;9776;50.798;6.430;2023-12-07T08:32:35;100572.91;;;2.96;72.92
19286;BME280;9776;50.798;6.430;2023-12-07T08:35:03;100559.56;;;3.01;72.93
19286;BME280;9776;50.798;6.430;2023-12-07T08:37:30;100565.25;;;3.07;72.93
19286;BME280;9776;50.798;6.430;2023-12-07T08:39:57;100564.69;;;3.16;72.82
19286;BME280;9776;50.798;6.430;2023-12-07T08:42:24;100563.34;;;3.23;72.70
19286;BME280;9776;50.798;6.430;2023-12-07T08:44:54;100568.94;;;3.31;72.58
19286;BME280;9776;50.798;6.430;2023-12-07T08:47:22;100572.81;;;3.38;72.59
19286;BME280;9776;50.798;6.430;2023-12-07T08:49:49;100564.06;;;3.39;72.55
19286;BME280;9776;50.798;6.430;2023-12-07T08:52:16;100552.69;;;3.40;72.55
19286;BME280;9776;50.798;6.430;2023-12-07T08:54:43;100548.94;;;3.44;72.48
19286;BME280;9776;50.798;6.430;2023-12-07T08:57:10;100554.16;;;3.44;72.62
19286;BME280;9776;50.798;6.430;2023-12-07T08:59:39;100557.69;;;3.43;72.60
19286;BME280;9776;50.798;6.430;2023-12-07T09:02:08;100554.22;;;3.30;72.83
19286;BME280;9776;50.798;6.430;2023-12-07T09:04:35;100549.22;;;3.13;73.09
19286;BME280;9776;50.798;6.430;2023-12-07T09:07:04;100559.84;;;3.10;73.31
19286;BME280;9776;50.798;6.430;2023-12-07T09:09:31;100559.84;;;3.10;73.24
19286;BME280;9776;50.798;6.430;2023-12-07T09:11:58;100563.94;;;3.14;73.09
19286;BME280;9776;50.798;6.430;2023-12-07T09:14:25;100554.25;;;3.16;72.97
19286;BME280;9776;50.798;6.430;2023-12-07T09:16:53;100568.03;;;3.18;72.97
19286;BME280;9776;50.798;6.430;2023-12-07T09:19:21;100570.75;;;3.17;72.78
19286;BME280;9776;50.798;6.430;2023-12-07T09:21:48;100565.53;;;3.17;72.85
19286;BME280;9776;50.798;6.430;2023-12-07T09:24:15;100563.66;;;3.19;72.78
19286;BME280;9776;50.798;6.430;2023-12-07T09:26:45;100559.09;;;3.22;72.61
19286;BME280;9776;50.798;6.430;2023-12-07T09:29:10;100555.53;;;3.23;72.78
19286;BME280;9776;50.798;6.430;2023-12-07T09:31:37;100552.72;;;3.26;72.79
19286;BME280;9776;50.798;6.430;2023-12-07T09:34:06;100560.34;;;3.29;72.83
19286;BME280;9776;50.798;6.430;2023-12-07T09:36:37;100560.16;;;3.32;72.67
19286;BME280;9776;50.798;6.430;2023-12-07T09:39:04;100575.53;;;3.37;72.64
19286;BME280;9776;50.798;6.430;2023-12-07T09:41:34;100585.84;;;3.38;72.55
19286;BME280;9776;50.798;6.430;2023-12-07T09:44:01;100582.13;;;3.42;72.54
19286;BME280;9776;50.798;6.430;2023-12-07T09:46:31;100583.59;;;3.47;72.58
19286;BME280;9776;50.798;6.430;2023-12-07T09:48:58;100577.25;;;3.51;72.57
19286;BME280;9776;50.798;6.430;2023-12-07T09:51:26;100576.13;;;3.55;72.46
19286;BME280;9776;50.798;6.430;2023-12-07T09:53:55;100572.47;;;3.57;72.45
19286;BME280;9776;50.798;6.430;2023-12-07T09:56:22;100571.53;;;3.58;72.35
19286;BME280;9776;50.798;6.430;2023-12-07T09:58:49;100569.56;;;3.62;72.19
19286;BME280;9776;50.798;6.430;2023-12-07T10:01:16;100548.59;;;3.63;72.26
19286;BME280;9776;50.798;6.430;2023-12-07T10:03:46;100548.28;;;3.68;72.25
19286;BME280;9776;50.798;6.430;2023-12-07T10:06:13;100539.41;;;3.70;72.21
19286;BME280;9776;50.798;6.430;2023-12-07T10:08:40;100533.16;;;3.73;72.20
19286;BME280;9776;50.798;6.430;2023-12-07T10:11:11;100540.56;;;3.79;71.97
19286;BME280;9776;50.798;6.430;2023-12-07T10:13:39;100524.63;;;3.83;71.97
19286;BME280;9776;50.798;6.430;2023-12-07T10:16:10;100519.94;;;3.88;71.97
19286;BME280;9776;50.798;6.430;2023-12-07T10:18:38;100516.19;;;3.92;71.93
19286;BME280;9776;50.798;6.430;2023-12-07T10:21:06;100514.09;;;3.97;71.90
19286;BME280;9776;50.798;6.430;2023-12-07T10:23:35;100514.63;;;4.03;71.65
19286;BME280;9776;50.798;6.430;2023-12-07T10:26:03;100512.44;;;4.09;71.49
19286;BME280;9776;50.798;6.430;2023-12-07T10:28:36;100508.78;;;4.12;71.48
19286;BME280;9776;50.798;6.430;2023-12-07T10:31:04;100501.38;;;4.18;71.44
19286;BME280;9776;50.798;6.430;2023-12-07T10:33:35;100492.28;;;4.24;71.40
19286;BME280;9776;50.798;6.430;2023-12-07T10:36:03;100479.59;;;4.30;71.11
19286;BME280;9776;50.798;6.430;2023-12-07T10:38:31;100473.75;;;4.39;70.98
19286;BME280;9776;50.798;6.430;2023-12-07T10:41:04;100465.47;;;4.45;70.94
19286;BME280;9776;50.798;6.430;2023-12-07T10:43:36;100464.13;;;4.52;70.57
19286;BME280;9776;50.798;6.430;2023-12-07T10:46:05;100450.50;;;4.60;70.57
19286;BME280;9776;50.798;6.430;2023-12-07T10:48:32;100444.63;;;4.69;70.38
19286;BME280;9776;50.798;6.430;2023-12-07T10:51:06;100442.28;;;4.77;70.29
19286;BME280;9776;50.798;6.430;2023-12-07T10:53:37;100440.06;;;4.84;69.99
19286;BME280;9776;50.798;6.430;2023-12-07T10:56:08;100442.88;;;4.93;69.93
19286;BME280;9776;50.798;6.430;2023-12-07T10:58:38;100438.97;;;4.99;69.72
19286;BME280;9776;50.798;6.430;2023-12-07T11:01:10;100430.44;;;5.08;69.83
19286;BME280;9776;50.798;6.430;2023-12-07T11:03:39;100430.16;;;5.24;69.44
19286;BME280;9776;50.798;6.430;2023-12-07T11:06:08;100422.34;;;5.81;68.61
19286;BME280;9776;50.798;6.430;2023-12-07T11:08:41;100413.97;;;6.75;66.83
19286;BME280;9776;50.798;6.430;2023-12-07T11:11:16;100412.66;;;7.65;64.63
19286;BME280;9776;50.798;6.430;2023-12-07T11:13:52;100403.91;;;8.36;63.33
19286;BME280;9776;50.798;6.430;2023-12-07T11:16:29;100404.88;;;8.94;62.09
19286;BME280;9776;50.798;6.430;2023-12-07T11:18:56;100399.44;;;9.44;60.97
19286;BME280;9776;50.798;6.430;2023-12-07T11:21:23;100394.56;;;9.78;60.25
19286;BME280;9776;50.798;6.430;2023-12-07T11:23:50;100399.28;;;10.11;59.40
19286;BME280;9776;50.798;6.430;2023-12-07T11:26:19;100394.13;;;10.56;58.45
19286;BME280;9776;50.798;6.430;2023-12-07T11:28:48;100382.41;;;11.21;56.98
19286;BME280;9776;50.798;6.430;2023-12-07T11:31:15;100377.19;;;11.98;55.24
19286;BME280;9776;50.798;6.430;2023-12-07T11:33:42;100385.31;;;12.38;53.84
19286;BME280;9776;50.798;6.430;2023-12-07T11:36:11;100376.75;;;12.52;53.34
19286;BME280;9776;50.798;6.430;2023-12-07T11:41:43;100385.81;;;12.84;52.06
19286;BME280;9776;50.798;6.430;2023-12-07T11:44:15;100379.69;;;12.91;51.88
19286;BME280;9776;50.798;6.430;2023-12-07T11:46:43;100375.84;;;12.70;52.02
19286;BME280;9776;50.798;6.430;2023-12-07T11:49:11;100369.94;;;12.34;52.37
19286;BME280;9776;50.798;6.430;2023-12-07T11:51:39;100373.88;;;11.96;53.03
19286;BME280;9776;50.798;6.430;2023-12-07T11:54:08;100376.28;;;11.64;53.28
19286;BME280;9776;50.798;6.430;2023-12-07T11:56:37;100370.84;;;11.83;53.02
19286;BME280;9776;50.798;6.430;2023-12-07T11:59:04;100368.41;;;12.23;52.04
19286;BME280;9776;50.798;6.430;2023-12-07T12:01:32;100375.97;;;12.52;51.03
19286;BME280;9776;50.798;6.430;2023-12-07T12:03:59;100373.88;;;12.72;50.25
19286;BME280;9776;50.798;6.430;2023-12-07T12:06:26;100370.91;;;12.91;49.58
19286;BME280;9776;50.798;6.430;2023-12-07T12:08:55;100363.03;;;13.15;48.75
19286;BME280;9776;50.798;6.430;2023-12-07T12:11:22;100360.22;;;13.33;48.58
19286;BME280;9776;50.798;6.430;2023-12-07T12:13:49;100348.09;;;13.46;47.89
19286;BME280;9776;50.798;6.430;2023-12-07T12:16:16;100349.44;;;13.34;47.98
19286;BME280;9776;50.798;6.430;2023-12-07T12:18:44;100338.47;;;13.05;48.20
19286;BME280;9776;50.798;6.430;2023-12-07T12:21:11;100333.31;;;12.71;48.79
19286;BME280;9776;50.798;6.430;2023-12-07T12:23:39;100335.19;;;12.37;49.25
19286;BME280;9776;50.798;6.430;2023-12-07T12:26:07;100319.41;;;12.11;49.79
19286;BME280;9776;50.798;6.430;2023-12-07T12:28:38;100317.34;;;11.97;49.73
19286;BME280;9776;50.798;6.430;2023-12-07T12:31:11;100312.66;;;11.83;50.28
19286;BME280;9776;50.798;6.430;2023-12-07T12:33:41;100309.88;;;11.67;50.06
19286;BME280;9776;50.798;6.430;2023-12-07T12:36:12;100312.44;;;11.51;50.21
19286;BME280;9776;50.798;6.430;2023-12-07T12:38:39;100304.31;;;11.44;50.54
19286;BME280;9776;50.798;6.430;2023-12-07T12:41:06;100302.22;;;11.56;50.00
19286;BME280;9776;50.798;6.430;2023-12-07T12:43:34;100304.31;;;11.70;49.58
19286;BME280;9776;50.798;6.430;2023-12-07T12:46:01;100297.28;;;11.86;49.26
19286;BME280;9776;50.798;6.430;2023-12-07T12:48:37;100284.59;;;11.98;48.58
19286;BME280;9776;50.798;6.430;2023-12-07T12:51:13;100276.03;;;12.04;48.62
19286;BME280;9776;50.798;6.430;2023-12-07T12:53:47;100273.09;;;12.15;48.45
19286;BME280;9776;50.798;6.430;2023-12-07T12:56:20;100265.22;;;12.31;47.97
19286;BME280;9776;50.798;6.430;2023-12-07T12:58:47;100253.34;;;12.68;47.38
19286;BME280;9776;50.798;6.430;2023-12-07T13:01:14;100245.44;;;13.08;46.74
19286;BME280;9776;50.798;6.430;2023-12-07T13:03:46;100225.56;;;13.67;45.59
19286;BME280;9776;50.798;6.430;2023-12-07T13:06:15;100208.34;;;14.02;44.80
19286;BME280;9776;50.798;6.430;2023-12-07T13:08:44;100210.06;;;14.17;44.22
19286;BME280;9776;50.798;6.430;2023-12-07T13:11:17;100210.84;;;14.34;43.92
19286;BME280;9776;50.798;6.430;2023-12-07T13:13:46;100209.34;;;14.54;43.58
19286;BME280;9776;50.798;6.430;2023-12-07T13:16:16;100197.72;;;14.55;43.24